Terminal Aerodrome Forecast
Issued by NWS

Home | Current Version | Previous Version | Text Only | Print | Product List | Glossary On
Versions: 1 2 3 4 5 6 7 8 9 10 11 12 13 14 15 16 17 18 19 20 21 22 23 24 25 26
348
FTUS45 KGJT 061729
TAFCNY
TAF
KCNY 061729Z 0618/0718 14005KT P6SM FEW110
     FM070000 32007KT P6SM SCT110 BKN200
     FM070300 29007KT P6SM OVC130
     FM070900 28011G19KT P6SM SCT200
     FM071400 29007KT P6SM FEW250
     FM071500 32006KT P6SM FEW250=

USA.gov is the U.S. government's official web portal to all federal, state and local government web resources and services.